sensor_id;sensor_type;location;lat;lon;timestamp;P1;durP1;ratioP1;P2;durP2;ratioP2
75195;SDS011;63773;42.282;22.782;2023-04-06T08:08:22;7.90;;;5.95;;
75195;SDS011;63773;42.282;22.782;2023-04-06T08:10:48;6.93;;;4.22;;
75195;SDS011;63773;42.282;22.782;2023-04-06T08:13:14;6.93;;;3.95;;
75195;SDS011;63773;42.282;22.782;2023-04-06T08:15:40;7.80;;;4.43;;
75195;SDS011;63773;42.282;22.782;2023-04-06T08:18:05;6.10;;;3.83;;
75195;SDS011;63773;42.282;22.782;2023-04-06T08:20:31;6.25;;;4.07;;
75195;SDS011;63773;42.282;22.782;2023-04-06T08:22:56;6.78;;;4.45;;
75195;SDS011;63773;42.282;22.782;2023-04-06T08:25:22;6.47;;;3.53;;
75195;SDS011;63773;42.282;22.782;2023-04-06T08:27:48;6.55;;;3.95;;
75195;SDS011;63773;42.282;22.782;2023-04-06T08:30:14;5.80;;;4.20;;
75195;SDS011;63773;42.282;22.782;2023-04-06T08:32:40;8.90;;;4.72;;
75195;SDS011;63773;42.282;22.782;2023-04-06T08:35:06;7.07;;;4.50;;
75195;SDS011;63773;42.282;22.782;2023-04-06T08:37:32;6.97;;;3.67;;
75195;SDS011;63773;42.282;22.782;2023-04-06T08:39:58;7.47;;;4.38;;
75195;SDS011;63773;42.282;22.782;2023-04-06T08:42:24;6.22;;;4.03;;
75195;SDS011;63773;42.282;22.782;2023-04-06T08:44:51;7.20;;;4.25;;
75195;SDS011;63773;42.282;22.782;2023-04-06T08:47:17;7.60;;;4.03;;
75195;SDS011;63773;42.282;22.782;2023-04-06T08:49:44;7.30;;;4.65;;
75195;SDS011;63773;42.282;22.782;2023-04-06T08:52:10;6.57;;;4.40;;
75195;SDS011;63773;42.282;22.782;2023-04-06T08:54:36;5.47;;;3.72;;
75195;SDS011;63773;42.282;22.782;2023-04-06T08:57:02;5.60;;;3.88;;
75195;SDS011;63773;42.282;22.782;2023-04-06T08:59:28;6.70;;;4.65;;
75195;SDS011;63773;42.282;22.782;2023-04-06T09:01:55;6.28;;;4.80;;
75195;SDS011;63773;42.282;22.782;2023-04-06T09:04:21;5.47;;;3.60;;
75195;SDS011;63773;42.282;22.782;2023-04-06T09:06:46;7.20;;;4.25;;
75195;SDS011;63773;42.282;22.782;2023-04-06T09:09:12;6.90;;;3.90;;
75195;SDS011;63773;42.282;22.782;2023-04-06T09:14:14;8.57;;;4.50;;
75195;SDS011;63773;42.282;22.782;2023-04-06T09:16:40;7.07;;;4.18;;
75195;SDS011;63773;42.282;22.782;2023-04-06T09:19:08;7.25;;;3.55;;
75195;SDS011;63773;42.282;22.782;2023-04-06T09:21:34;7.25;;;4.15;;
75195;SDS011;63773;42.282;22.782;2023-04-06T09:24:01;16.55;;;4.57;;
75195;SDS011;63773;42.282;22.782;2023-04-06T09:26:27;5.80;;;3.35;;
75195;SDS011;63773;42.282;22.782;2023-04-06T09:28:54;6.75;;;3.90;;
75195;SDS011;63773;42.282;22.782;2023-04-06T09:31:21;5.97;;;3.45;;
75195;SDS011;63773;42.282;22.782;2023-04-06T09:33:48;6.13;;;3.25;;
75195;SDS011;63773;42.282;22.782;2023-04-06T09:36:15;5.25;;;3.25;;
75195;SDS011;63773;42.282;22.782;2023-04-06T09:38:54;8.10;;;3.97;;
75195;SDS011;63773;42.282;22.782;2023-04-06T09:41:28;6.05;;;3.92;;
75195;SDS011;63773;42.282;22.782;2023-04-06T09:44:02;7.38;;;3.85;;
75195;SDS011;63773;42.282;22.782;2023-04-06T09:46:32;6.53;;;3.88;;
75195;SDS011;63773;42.282;22.782;2023-04-06T09:49:03;6.35;;;4.38;;
75195;SDS011;63773;42.282;22.782;2023-04-06T09:51:35;6.28;;;4.05;;
75195;SDS011;63773;42.282;22.782;2023-04-06T09:54:02;7.38;;;3.83;;
75195;SDS011;63773;42.282;22.782;2023-04-06T09:59:08;4.20;;;2.40;;
75195;SDS011;63773;42.282;22.782;2023-04-06T10:01:38;5.40;;;3.05;;
75195;SDS011;63773;42.282;22.782;2023-04-06T10:04:13;6.30;;;3.70;;
75195;SDS011;63773;42.282;22.782;2023-04-06T10:07:05;5.93;;;2.83;;
75195;SDS011;63773;42.282;22.782;2023-04-06T10:09:33;4.68;;;2.88;;
75195;SDS011;63773;42.282;22.782;2023-04-06T10:12:05;4.80;;;2.72;;
75195;SDS011;63773;42.282;22.782;2023-04-06T10:14:34;6.05;;;3.03;;
75195;SDS011;63773;42.282;22.782;2023-04-06T10:17:03;6.40;;;3.40;;
75195;SDS011;63773;42.282;22.782;2023-04-06T10:22:26;6.00;;;3.17;;
75195;SDS011;63773;42.282;22.782;2023-04-06T10:25:25;6.07;;;3.30;;
75195;SDS011;63773;42.282;22.782;2023-04-06T10:28:30;4.78;;;2.80;;
75195;SDS011;63773;42.282;22.782;2023-04-06T10:30:45;7.10;;;3.83;;
75195;SDS011;63773;42.282;22.782;2023-04-06T10:33:18;5.75;;;3.13;;
75195;SDS011;63773;42.282;22.782;2023-04-06T10:35:45;6.50;;;3.75;;
75195;SDS011;63773;42.282;22.782;2023-04-06T10:38:11;6.53;;;3.70;;
75195;SDS011;63773;42.282;22.782;2023-04-06T10:40:39;6.32;;;3.47;;
75195;SDS011;63773;42.282;22.782;2023-04-06T10:43:08;6.68;;;3.40;;
75195;SDS011;63773;42.282;22.782;2023-04-06T10:45:38;7.30;;;3.50;;
75195;SDS011;63773;42.282;22.782;2023-04-06T10:48:23;6.38;;;3.45;;
75195;SDS011;63773;42.282;22.782;2023-04-06T10:50:52;5.38;;;3.00;;
75195;SDS011;63773;42.282;22.782;2023-04-06T10:53:24;5.50;;;2.92;;
75195;SDS011;63773;42.282;22.782;2023-04-06T10:55:52;5.75;;;3.55;;
75195;SDS011;63773;42.282;22.782;2023-04-06T10:58:20;4.75;;;3.10;;
75195;SDS011;63773;42.282;22.782;2023-04-06T11:00:50;5.88;;;3.97;;
75195;SDS011;63773;42.282;22.782;2023-04-06T11:03:16;5.40;;;3.38;;
75195;SDS011;63773;42.282;22.782;2023-04-06T11:05:46;7.60;;;3.42;;
75195;SDS011;63773;42.282;22.782;2023-04-06T11:08:29;4.80;;;3.00;;
75195;SDS011;63773;42.282;22.782;2023-04-06T11:11:09;5.88;;;3.05;;
75195;SDS011;63773;42.282;22.782;2023-04-06T11:13:41;6.50;;;3.58;;
75195;SDS011;63773;42.282;22.782;2023-04-06T11:16:17;5.90;;;3.58;;
75195;SDS011;63773;42.282;22.782;2023-04-06T11:18:48;6.05;;;3.40;;
75195;SDS011;63773;42.282;22.782;2023-04-06T11:21:15;5.07;;;3.30;;
75195;SDS011;63773;42.282;22.782;2023-04-06T11:23:41;7.53;;;4.55;;
75195;SDS011;63773;42.282;22.782;2023-04-06T11:26:14;7.10;;;3.72;;
75195;SDS011;63773;42.282;22.782;2023-04-06T11:28:44;8.02;;;4.40;;
75195;SDS011;63773;42.282;22.782;2023-04-06T11:31:10;7.47;;;4.15;;
75195;SDS011;63773;42.282;22.782;2023-04-06T11:33:36;6.25;;;3.78;;
75195;SDS011;63773;42.282;22.782;2023-04-06T11:36:03;7.05;;;3.78;;
75195;SDS011;63773;42.282;22.782;2023-04-06T11:38:30;8.18;;;3.78;;
75195;SDS011;63773;42.282;22.782;2023-04-06T11:40:56;7.47;;;3.95;;
75195;SDS011;63773;42.282;22.782;2023-04-06T11:43:28;7.13;;;4.15;;
75195;SDS011;63773;42.282;22.782;2023-04-06T11:46:02;6.47;;;4.53;;
75195;SDS011;63773;42.282;22.782;2023-04-06T11:48:28;7.07;;;4.18;;
75195;SDS011;63773;42.282;22.782;2023-04-06T11:50:57;6.55;;;3.63;;
75195;SDS011;63773;42.282;22.782;2023-04-06T11:53:26;6.45;;;3.88;;
75195;SDS011;63773;42.282;22.782;2023-04-06T11:55:55;7.07;;;4.22;;
75195;SDS011;63773;42.282;22.782;2023-04-06T11:58:21;5.82;;;3.72;;
75195;SDS011;63773;42.282;22.782;2023-04-06T12:00:46;5.38;;;3.75;;
75195;SDS011;63773;42.282;22.782;2023-04-06T12:03:12;7.03;;;4.35;;
75195;SDS011;63773;42.282;22.782;2023-04-06T12:05:38;6.88;;;3.63;;
75195;SDS011;63773;42.282;22.782;2023-04-06T12:08:04;7.85;;;4.70;;
75195;SDS011;63773;42.282;22.782;2023-04-06T12:10:29;6.43;;;3.83;;
75195;SDS011;63773;42.282;22.782;2023-04-06T12:12:55;7.22;;;3.88;;
75195;SDS011;63773;42.282;22.782;2023-04-06T12:15:20;6.93;;;4.45;;
75195;SDS011;63773;42.282;22.782;2023-04-06T12:17:46;7.45;;;4.07;;
75195;SDS011;63773;42.282;22.782;2023-04-06T12:20:12;6.72;;;3.80;;
75195;SDS011;63773;42.282;22.782;2023-04-06T12:22:38;8.02;;;4.88;;
75195;SDS011;63773;42.282;22.782;2023-04-06T12:25:05;6.78;;;4.38;;
75195;SDS011;63773;42.282;22.782;2023-04-06T12:27:31;8.27;;;4.53;;
75195;SDS011;63773;42.282;22.782;2023-04-06T12:29:57;6.95;;;4.45;;
75195;SDS011;63773;42.282;22.782;2023-04-06T12:32:23;8.23;;;4.45;;
75195;SDS011;63773;42.282;22.782;2023-04-06T12:34:49;8.32;;;5.30;;
75195;SDS011;63773;42.282;22.782;2023-04-06T12:37:16;8.52;;;4.80;;
75195;SDS011;63773;42.282;22.782;2023-04-06T12:39:41;8.45;;;4.57;;
75195;SDS011;63773;42.282;22.782;2023-04-06T12:42:09;6.90;;;4.38;;
75195;SDS011;63773;42.282;22.782;2023-04-06T12:44:35;8.30;;;4.18;;
75195;SDS011;63773;42.282;22.782;2023-04-06T12:47:00;8.68;;;4.18;;
75195;SDS011;63773;42.282;22.782;2023-04-06T12:49:26;7.93;;;4.55;;
75195;SDS011;63773;42.282;22.782;2023-04-06T12:51:51;8.98;;;5.65;;
75195;SDS011;63773;42.282;22.782;2023-04-06T12:54:17;7.55;;;5.18;;
75195;SDS011;63773;42.282;22.782;2023-04-06T12:56:42;7.03;;;5.28;;
75195;SDS011;63773;42.282;22.782;2023-04-06T12:59:09;7.20;;;4.22;;
75195;SDS011;63773;42.282;22.782;2023-04-06T13:01:34;6.88;;;4.50;;
75195;SDS011;63773;42.282;22.782;2023-04-06T13:04:00;7.90;;;5.22;;
75195;SDS011;63773;42.282;22.782;2023-04-06T13:06:25;7.32;;;4.75;;
75195;SDS011;63773;42.282;22.782;2023-04-06T13:08:55;12.07;;;5.05;;
75195;SDS011;63773;42.282;22.782;2023-04-06T13:11:20;7.90;;;4.85;;
75195;SDS011;63773;42.282;22.782;2023-04-06T13:13:49;8.95;;;5.38;;
75195;SDS011;63773;42.282;22.782;2023-04-06T13:16:14;7.63;;;5.50;;
75195;SDS011;63773;42.282;22.782;2023-04-06T13:18:40;9.18;;;5.15;;
75195;SDS011;63773;42.282;22.782;2023-04-06T13:21:06;8.90;;;4.63;;
75195;SDS011;63773;42.282;22.782;2023-04-06T13:23:32;7.90;;;4.78;;
75195;SDS011;63773;42.282;22.782;2023-04-06T13:26:04;8.80;;;5.53;;
75195;SDS011;63773;42.282;22.782;2023-04-06T13:28:32;7.47;;;4.85;;
75195;SDS011;63773;42.282;22.782;2023-04-06T13:30:58;8.00;;;5.05;;
75195;SDS011;63773;42.282;22.782;2023-04-06T13:33:25;7.43;;;4.93;;
75195;SDS011;63773;42.282;22.782;2023-04-06T13:35:51;7.32;;;5.40;;
75195;SDS011;63773;42.282;22.782;2023-04-06T13:38:17;6.93;;;4.70;;
75195;SDS011;63773;42.282;22.782;2023-04-06T13:40:43;8.77;;;5.25;;
75195;SDS011;63773;42.282;22.782;2023-04-06T13:43:09;9.23;;;5.32;;
75195;SDS011;63773;42.282;22.782;2023-04-06T13:45:35;7.15;;;5.13;;
75195;SDS011;63773;42.282;22.782;2023-04-06T13:48:00;7.25;;;4.32;;
75195;SDS011;63773;42.282;22.782;2023-04-06T13:50:27;9.48;;;5.78;;
75195;SDS011;63773;42.282;22.782;2023-04-06T13:52:53;11.60;;;5.32;;
75195;SDS011;63773;42.282;22.782;2023-04-06T13:55:19;12.55;;;5.30;;
75195;SDS011;63773;42.282;22.782;2023-04-06T13:57:44;7.50;;;5.03;;
75195;SDS011;63773;42.282;22.782;2023-04-06T14:00:10;6.82;;;4.57;;
75195;SDS011;63773;42.282;22.782;2023-04-06T14:02:39;7.47;;;4.90;;
75195;SDS011;63773;42.282;22.782;2023-04-06T14:05:05;7.97;;;5.13;;
75195;SDS011;63773;42.282;22.782;2023-04-06T14:07:30;8.07;;;5.03;;
75195;SDS011;63773;42.282;22.782;2023-04-06T14:09:56;7.07;;;4.60;;
75195;SDS011;63773;42.282;22.782;2023-04-06T14:12:21;7.63;;;4.38;;
75195;SDS011;63773;42.282;22.782;2023-04-06T14:14:47;7.93;;;5.47;;
75195;SDS011;63773;42.282;22.782;2023-04-06T14:17:12;6.95;;;4.95;;
75195;SDS011;63773;42.282;22.782;2023-04-06T14:19:38;7.40;;;4.80;;
75195;SDS011;63773;42.282;22.782;2023-04-06T14:22:03;7.57;;;4.95;;
75195;SDS011;63773;42.282;22.782;2023-04-06T14:24:30;8.60;;;4.18;;
75195;SDS011;63773;42.282;22.782;2023-04-06T14:26:56;9.32;;;4.60;;
75195;SDS011;63773;42.282;22.782;2023-04-06T14:29:22;7.70;;;4.82;;
75195;SDS011;63773;42.282;22.782;2023-04-06T14:31:48;8.07;;;5.28;;
75195;SDS011;63773;42.282;22.782;2023-04-06T14:34:14;8.88;;;5.22;;
75195;SDS011;63773;42.282;22.782;2023-04-06T14:39:08;7.90;;;4.45;;
75195;SDS011;63773;42.282;22.782;2023-04-06T14:41:34;6.97;;;4.07;;
75195;SDS011;63773;42.282;22.782;2023-04-06T14:44:00;6.68;;;3.97;;
75195;SDS011;63773;42.282;22.782;2023-04-06T14:46:26;7.25;;;4.70;;
75195;SDS011;63773;42.282;22.782;2023-04-06T14:48:56;10.43;;;6.00;;
75195;SDS011;63773;42.282;22.782;2023-04-06T14:51:25;9.55;;;5.60;;
75195;SDS011;63773;42.282;22.782;2023-04-06T14:53:54;9.55;;;6.13;;
75195;SDS011;63773;42.282;22.782;2023-04-06T14:56:20;8.13;;;4.85;;
75195;SDS011;63773;42.282;22.782;2023-04-06T14:58:46;9.05;;;4.53;;
75195;SDS011;63773;42.282;22.782;2023-04-06T15:01:12;6.60;;;4.50;;
75195;SDS011;63773;42.282;22.782;2023-04-06T15:03:37;7.00;;;5.07;;
75195;SDS011;63773;42.282;22.782;2023-04-06T15:06:03;7.47;;;5.20;;
75195;SDS011;63773;42.282;22.782;2023-04-06T15:08:28;6.45;;;4.38;;
75195;SDS011;63773;42.282;22.782;2023-04-06T15:10:53;6.78;;;4.57;;
75195;SDS011;63773;42.282;22.782;2023-04-06T15:13:23;8.00;;;4.65;;
75195;SDS011;63773;42.282;22.782;2023-04-06T15:15:50;9.63;;;5.95;;
75195;SDS011;63773;42.282;22.782;2023-04-06T15:18:16;8.32;;;5.00;;
75195;SDS011;63773;42.282;22.782;2023-04-06T15:20:41;8.52;;;5.45;;
75195;SDS011;63773;42.282;22.782;2023-04-06T15:23:07;9.77;;;5.28;;
75195;SDS011;63773;42.282;22.782;2023-04-06T15:25:32;9.02;;;5.68;;
75195;SDS011;63773;42.282;22.782;2023-04-06T15:27:58;10.00;;;5.35;;
75195;SDS011;63773;42.282;22.782;2023-04-06T15:30:23;8.05;;;4.72;;
75195;SDS011;63773;42.282;22.782;2023-04-06T15:32:58;8.30;;;6.03;;
75195;SDS011;63773;42.282;22.782;2023-04-06T15:35:28;8.45;;;5.25;;
75195;SDS011;63773;42.282;22.782;2023-04-06T15:37:54;9.20;;;5.45;;
75195;SDS011;63773;42.282;22.782;2023-04-06T15:40:21;8.18;;;5.43;;
75195;SDS011;63773;42.282;22.782;2023-04-06T15:42:46;8.02;;;5.22;;
75195;SDS011;63773;42.282;22.782;2023-04-06T15:45:12;7.15;;;4.43;;
75195;SDS011;63773;42.282;22.782;2023-04-06T15:47:39;8.00;;;5.07;;
75195;SDS011;63773;42.282;22.782;2023-04-06T15:50:25;9.43;;;5.40;;
75195;SDS011;63773;42.282;22.782;2023-04-06T15:52:52;8.38;;;5.35;;
75195;SDS011;63773;42.282;22.782;2023-04-06T15:55:17;8.02;;;4.78;;
75195;SDS011;63773;42.282;22.782;2023-04-06T15:57:43;11.27;;;5.80;;
75195;SDS011;63773;42.282;22.782;2023-04-06T16:00:08;10.75;;;5.93;;
75195;SDS011;63773;42.282;22.782;2023-04-06T16:02:34;11.25;;;7.35;;
75195;SDS011;63773;42.282;22.782;2023-04-06T16:04:59;11.52;;;6.55;;
75195;SDS011;63773;42.282;22.782;2023-04-06T16:07:26;8.50;;;6.13;;
75195;SDS011;63773;42.282;22.782;2023-04-06T16:09:52;9.32;;;6.22;;
75195;SDS011;63773;42.282;22.782;2023-04-06T16:12:19;9.00;;;5.63;;
75195;SDS011;63773;42.282;22.782;2023-04-06T16:14:45;9.15;;;6.15;;
75195;SDS011;63773;42.282;22.782;2023-04-06T16:17:11;8.40;;;5.97;;
75195;SDS011;63773;42.282;22.782;2023-04-06T16:19:37;10.23;;;6.10;;
75195;SDS011;63773;42.282;22.782;2023-04-06T16:22:02;9.82;;;6.13;;
75195;SDS011;63773;42.282;22.782;2023-04-06T16:24:28;9.80;;;6.15;;
75195;SDS011;63773;42.282;22.782;2023-04-06T16:26:53;10.95;;;7.03;;
75195;SDS011;63773;42.282;22.782;2023-04-06T16:29:20;9.55;;;5.63;;
75195;SDS011;63773;42.282;22.782;2023-04-06T16:31:46;10.23;;;5.22;;
75195;SDS011;63773;42.282;22.782;2023-04-06T16:34:12;7.45;;;5.00;;
75195;SDS011;63773;42.282;22.782;2023-04-06T16:36:38;8.75;;;4.90;;
75195;SDS011;63773;42.282;22.782;2023-04-06T16:39:08;8.73;;;5.80;;
75195;SDS011;63773;42.282;22.782;2023-04-06T16:41:34;9.35;;;5.40;;
75195;SDS011;63773;42.282;22.782;2023-04-06T16:44:00;9.45;;;5.63;;
75195;SDS011;63773;42.282;22.782;2023-04-06T16:46:29;9.00;;;5.72;;
75195;SDS011;63773;42.282;22.782;2023-04-06T16:48:56;9.55;;;5.38;;
75195;SDS011;63773;42.282;22.782;2023-04-06T16:51:22;8.63;;;5.35;;
75195;SDS011;63773;42.282;22.782;2023-04-06T16:53:48;8.60;;;5.53;;
75195;SDS011;63773;42.282;22.782;2023-04-06T16:56:13;8.30;;;5.32;;
75195;SDS011;63773;42.282;22.782;2023-04-06T16:58:38;8.18;;;5.00;;
75195;SDS011;63773;42.282;22.782;2023-04-06T17:01:04;8.48;;;5.18;;
75195;SDS011;63773;42.282;22.782;2023-04-06T17:03:31;9.35;;;6.18;;
75195;SDS011;63773;42.282;22.782;2023-04-06T17:05:58;8.85;;;5.50;;
75195;SDS011;63773;42.282;22.782;2023-04-06T17:08:24;8.13;;;6.63;;
75195;SDS011;63773;42.282;22.782;2023-04-06T17:10:49;8.50;;;5.50;;
75195;SDS011;63773;42.282;22.782;2023-04-06T17:13:14;8.60;;;4.78;;
75195;SDS011;63773;42.282;22.782;2023-04-06T17:15:40;9.82;;;6.10;;
75195;SDS011;63773;42.282;22.782;2023-04-06T17:18:07;11.18;;;5.85;;
75195;SDS011;63773;42.282;22.782;2023-04-06T17:20:33;11.70;;;5.82;;
75195;SDS011;63773;42.282;22.782;2023-04-06T17:23:00;8.20;;;5.55;;
75195;SDS011;63773;42.282;22.782;2023-04-06T17:25:26;10.50;;;6.35;;
75195;SDS011;63773;42.282;22.782;2023-04-06T17:27:51;9.50;;;5.55;;
75195;SDS011;63773;42.282;22.782;2023-04-06T17:30:17;11.05;;;5.47;;
75195;SDS011;63773;42.282;22.782;2023-04-06T17:32:42;9.88;;;7.78;;
75195;SDS011;63773;42.282;22.782;2023-04-06T17:35:09;9.68;;;6.35;;
75195;SDS011;63773;42.282;22.782;2023-04-06T17:37:35;10.25;;;6.03;;
75195;SDS011;63773;42.282;22.782;2023-04-06T17:40:02;10.52;;;5.43;;
75195;SDS011;63773;42.282;22.782;2023-04-06T17:42:31;10.68;;;5.97;;
75195;SDS011;63773;42.282;22.782;2023-04-06T17:44:57;8.93;;;5.45;;
75195;SDS011;63773;42.282;22.782;2023-04-06T17:47:23;8.98;;;5.55;;
75195;SDS011;63773;42.282;22.782;2023-04-06T17:49:54;8.25;;;5.40;;
75195;SDS011;63773;42.282;22.782;2023-04-06T17:52:20;8.43;;;4.78;;
75195;SDS011;63773;42.282;22.782;2023-04-06T17:54:45;8.60;;;4.93;;
75195;SDS011;63773;42.282;22.782;2023-04-06T17:57:11;11.30;;;6.35;;
75195;SDS011;63773;42.282;22.782;2023-04-06T17:59:36;10.95;;;6.22;;
75195;SDS011;63773;42.282;22.782;2023-04-06T18:02:01;11.18;;;5.82;;
75195;SDS011;63773;42.282;22.782;2023-04-06T18:04:28;8.35;;;6.13;;
75195;SDS011;63773;42.282;22.782;2023-04-06T18:06:53;10.88;;;6.28;;
75195;SDS011;63773;42.282;22.782;2023-04-06T18:09:19;9.40;;;5.90;;
75195;SDS011;63773;42.282;22.782;2023-04-06T18:11:44;9.23;;;5.95;;
75195;SDS011;63773;42.282;22.782;2023-04-06T18:14:10;11.95;;;6.20;;
75195;SDS011;63773;42.282;22.782;2023-04-06T18:16:37;10.00;;;6.68;;
75195;SDS011;63773;42.282;22.782;2023-04-06T18:19:04;10.82;;;6.50;;
75195;SDS011;63773;42.282;22.782;2023-04-06T18:21:30;10.23;;;5.28;;
75195;SDS011;63773;42.282;22.782;2023-04-06T18:23:56;9.15;;;5.03;;
75195;SDS011;63773;42.282;22.782;2023-04-06T18:26:24;11.80;;;6.13;;
75195;SDS011;63773;42.282;22.782;2023-04-06T18:28:50;9.27;;;6.93;;
75195;SDS011;63773;42.282;22.782;2023-04-06T18:31:15;12.40;;;6.50;;
75195;SDS011;63773;42.282;22.782;2023-04-06T18:33:41;7.85;;;5.60;;
75195;SDS011;63773;42.282;22.782;2023-04-06T18:36:08;9.00;;;6.07;;
75195;SDS011;63773;42.282;22.782;2023-04-06T18:38:35;10.32;;;7.82;;
75195;SDS011;63773;42.282;22.782;2023-04-06T18:41:03;8.88;;;5.00;;
75195;SDS011;63773;42.282;22.782;2023-04-06T18:43:29;10.75;;;5.82;;
75195;SDS011;63773;42.282;22.782;2023-04-06T18:45:54;9.60;;;5.57;;
75195;SDS011;63773;42.282;22.782;2023-04-06T18:48:20;7.82;;;4.90;;
75195;SDS011;63773;42.282;22.782;2023-04-06T18:50:56;11.63;;;6.72;;
75195;SDS011;63773;42.282;22.782;2023-04-06T18:53:25;9.77;;;6.15;;
75195;SDS011;63773;42.282;22.782;2023-04-06T18:55:51;8.48;;;7.20;;
75195;SDS011;63773;42.282;22.782;2023-04-06T18:58:17;8.90;;;6.13;;
75195;SDS011;63773;42.282;22.782;2023-04-06T19:00:43;12.05;;;7.13;;
75195;SDS011;63773;42.282;22.782;2023-04-06T19:03:09;9.38;;;5.22;;
75195;SDS011;63773;42.282;22.782;2023-04-06T19:05:34;11.07;;;6.82;;
75195;SDS011;63773;42.282;22.782;2023-04-06T19:08:00;10.73;;;6.60;;
75195;SDS011;63773;42.282;22.782;2023-04-06T19:10:25;12.70;;;7.20;;
75195;SDS011;63773;42.282;22.782;2023-04-06T19:12:51;12.57;;;6.95;;
75195;SDS011;63773;42.282;22.782;2023-04-06T19:15:16;11.80;;;7.80;;
75195;SDS011;63773;42.282;22.782;2023-04-06T19:17:42;12.50;;;8.30;;
75195;SDS011;63773;42.282;22.782;2023-04-06T19:20:07;16.88;;;8.10;;
75195;SDS011;63773;42.282;22.782;2023-04-06T19:22:34;13.48;;;8.40;;
75195;SDS011;63773;42.282;22.782;2023-04-06T19:25:00;13.18;;;8.18;;
75195;SDS011;63773;42.282;22.782;2023-04-06T19:27:26;15.93;;;6.75;;
75195;SDS011;63773;42.282;22.782;2023-04-06T19:29:51;16.83;;;8.65;;
75195;SDS011;63773;42.282;22.782;2023-04-06T19:32:17;12.05;;;7.15;;
75195;SDS011;63773;42.282;22.782;2023-04-06T19:34:43;12.63;;;7.25;;
75195;SDS011;63773;42.282;22.782;2023-04-06T19:37:08;11.20;;;6.25;;
75195;SDS011;63773;42.282;22.782;2023-04-06T19:39:34;12.85;;;7.10;;
75195;SDS011;63773;42.282;22.782;2023-04-06T19:42:01;11.90;;;6.57;;
75195;SDS011;63773;42.282;22.782;2023-04-06T19:44:27;11.88;;;7.55;;
75195;SDS011;63773;42.282;22.782;2023-04-06T19:46:52;12.10;;;7.43;;
75195;SDS011;63773;42.282;22.782;2023-04-06T19:49:18;9.57;;;6.43;;
75195;SDS011;63773;42.282;22.782;2023-04-06T19:51:43;9.32;;;6.68;;
75195;SDS011;63773;42.282;22.782;2023-04-06T19:54:09;12.20;;;6.18;;
75195;SDS011;63773;42.282;22.782;2023-04-06T19:56:34;8.77;;;5.88;;
75195;SDS011;63773;42.282;22.782;2023-04-06T19:59:00;12.50;;;6.57;;
75195;SDS011;63773;42.282;22.782;2023-04-06T20:01:25;9.82;;;7.13;;
75195;SDS011;63773;42.282;22.782;2023-04-06T20:03:51;10.98;;;7.45;;
75195;SDS011;63773;42.282;22.782;2023-04-06T20:06:17;11.57;;;6.18;;
75195;SDS011;63773;42.282;22.782;2023-04-06T20:08:42;11.40;;;6.30;;
75195;SDS011;63773;42.282;22.782;2023-04-06T20:11:08;15.65;;;8.00;;
75195;SDS011;63773;42.282;22.782;2023-04-06T20:13:35;10.85;;;6.07;;
75195;SDS011;63773;42.282;22.782;2023-04-06T20:16:01;11.68;;;7.50;;
75195;SDS011;63773;42.282;22.782;2023-04-06T20:18:27;11.73;;;7.90;;
75195;SDS011;63773;42.282;22.782;2023-04-06T20:20:53;13.45;;;7.40;;
75195;SDS011;63773;42.282;22.782;2023-04-06T20:23:19;12.25;;;7.50;;
75195;SDS011;63773;42.282;22.782;2023-04-06T20:25:44;12.43;;;8.52;;
75195;SDS011;63773;42.282;22.782;2023-04-06T20:28:10;12.60;;;7.97;;
75195;SDS011;63773;42.282;22.782;2023-04-06T20:30:36;13.32;;;8.57;;
75195;SDS011;63773;42.282;22.782;2023-04-06T20:33:02;12.40;;;6.88;;
75195;SDS011;63773;42.282;22.782;2023-04-06T20:35:27;11.57;;;6.63;;
75195;SDS011;63773;42.282;22.782;2023-04-06T20:37:53;10.90;;;7.50;;
75195;SDS011;63773;42.282;22.782;2023-04-06T20:40:18;14.40;;;6.90;;
75195;SDS011;63773;42.282;22.782;2023-04-06T20:42:44;14.68;;;8.02;;
75195;SDS011;63773;42.282;22.782;2023-04-06T20:45:10;12.27;;;8.15;;
75195;SDS011;63773;42.282;22.782;2023-04-06T20:47:36;11.93;;;7.63;;
75195;SDS011;63773;42.282;22.782;2023-04-06T20:50:03;11.73;;;6.63;;
75195;SDS011;63773;42.282;22.782;2023-04-06T20:52:30;14.40;;;6.78;;
75195;SDS011;63773;42.282;22.782;2023-04-06T20:54:55;11.98;;;7.65;;
75195;SDS011;63773;42.282;22.782;2023-04-06T20:57:21;13.75;;;7.72;;
75195;SDS011;63773;42.282;22.782;2023-04-06T20:59:48;11.60;;;6.70;;
75195;SDS011;63773;42.282;22.782;2023-04-06T21:02:14;12.82;;;7.97;;
75195;SDS011;63773;42.282;22.782;2023-04-06T21:04:40;13.75;;;7.22;;
75195;SDS011;63773;42.282;22.782;2023-04-06T21:07:06;10.98;;;7.05;;
75195;SDS011;63773;42.282;22.782;2023-04-06T21:09:36;10.85;;;6.05;;
75195;SDS011;63773;42.282;22.782;2023-04-06T21:12:03;11.73;;;7.60;;
75195;SDS011;63773;42.282;22.782;2023-04-06T21:14:29;11.88;;;7.75;;
75195;SDS011;63773;42.282;22.782;2023-04-06T21:16:55;13.50;;;7.15;;
75195;SDS011;63773;42.282;22.782;2023-04-06T21:19:22;10.85;;;6.32;;
75195;SDS011;63773;42.282;22.782;2023-04-06T21:21:48;12.45;;;7.18;;
75195;SDS011;63773;42.282;22.782;2023-04-06T21:24:13;12.20;;;7.07;;
75195;SDS011;63773;42.282;22.782;2023-04-06T21:26:38;10.98;;;8.45;;
75195;SDS011;63773;42.282;22.782;2023-04-06T21:29:04;11.35;;;7.00;;
75195;SDS011;63773;42.282;22.782;2023-04-06T21:31:29;14.07;;;8.10;;
75195;SDS011;63773;42.282;22.782;2023-04-06T21:33:55;11.35;;;6.55;;
75195;SDS011;63773;42.282;22.782;2023-04-06T21:36:20;11.05;;;6.85;;
75195;SDS011;63773;42.282;22.782;2023-04-06T21:38:46;11.30;;;8.07;;
75195;SDS011;63773;42.282;22.782;2023-04-06T21:41:11;12.50;;;8.43;;
75195;SDS011;63773;42.282;22.782;2023-04-06T21:43:37;12.93;;;6.93;;
75195;SDS011;63773;42.282;22.782;2023-04-06T21:46:03;13.20;;;8.45;;
75195;SDS011;63773;42.282;22.782;2023-04-06T21:48:28;13.60;;;8.57;;
75195;SDS011;63773;42.282;22.782;2023-04-06T21:50:54;14.95;;;8.60;;
75195;SDS011;63773;42.282;22.782;2023-04-06T21:53:20;14.32;;;8.75;;
75195;SDS011;63773;42.282;22.782;2023-04-06T21:55:45;11.65;;;7.68;;
75195;SDS011;63773;42.282;22.782;2023-04-06T21:58:12;11.20;;;6.60;;
75195;SDS011;63773;42.282;22.782;2023-04-06T22:00:38;12.20;;;8.23;;
75195;SDS011;63773;42.282;22.782;2023-04-06T22:03:05;17.45;;;9.23;;
75195;SDS011;63773;42.282;22.782;2023-04-06T22:05:30;13.10;;;8.52;;
75195;SDS011;63773;42.282;22.782;2023-04-06T22:07:56;15.38;;;9.80;;
75195;SDS011;63773;42.282;22.782;2023-04-06T22:10:22;14.07;;;8.43;;
75195;SDS011;63773;42.282;22.782;2023-04-06T22:12:49;16.00;;;8.73;;
75195;SDS011;63773;42.282;22.782;2023-04-06T22:15:15;13.55;;;10.43;;
75195;SDS011;63773;42.282;22.782;2023-04-06T22:17:41;15.50;;;9.23;;
75195;SDS011;63773;42.282;22.782;2023-04-06T22:20:06;13.73;;;8.13;;
75195;SDS011;63773;42.282;22.782;2023-04-06T22:22:32;14.43;;;9.20;;
75195;SDS011;63773;42.282;22.782;2023-04-06T22:24:57;13.55;;;9.05;;
75195;SDS011;63773;42.282;22.782;2023-04-06T22:27:25;14.10;;;9.40;;
75195;SDS011;63773;42.282;22.782;2023-04-06T22:29:51;14.43;;;9.18;;
75195;SDS011;63773;42.282;22.782;2023-04-06T22:32:16;13.82;;;8.27;;
75195;SDS011;63773;42.282;22.782;2023-04-06T22:34:42;15.18;;;8.05;;
75195;SDS011;63773;42.282;22.782;2023-04-06T22:37:07;17.92;;;9.63;;
75195;SDS011;63773;42.282;22.782;2023-04-06T22:39:33;11.65;;;7.72;;
75195;SDS011;63773;42.282;22.782;2023-04-06T22:41:58;13.48;;;9.60;;
75195;SDS011;63773;42.282;22.782;2023-04-06T22:44:24;14.38;;;9.38;;
75195;SDS011;63773;42.282;22.782;2023-04-06T22:46:49;15.30;;;8.98;;